Time;durP1;ratioP1;P1;durP2;ratioP2;P2;SDS_P1;SDS_P2;PMS_P1;PMS_P2;Temp;Humidity;BMP_temperature;BMP_pressure;BME280_temperature;BME280_humidity;BME280_pressure;Samples;Min_cycle;Max_cycle;Signal;HPM_P1;HPM_P2
2022/04/10 00:00:14;;;;;;;4.07;2.38;;;12.80;50.80;;;;;;5052548;28;20021;-84
2022/04/10 00:02:41;;;;;;;3.58;2.08;;;12.90;50.90;;;;;;5053524;28;20033;-86
2022/04/10 00:05:07;;;;;;;4.55;2.30;;;12.50;51.20;;;;;;5053744;28;20057;-85
2022/04/10 00:07:33;;;;;;;4.22;2.10;;;12.20;51.80;;;;;;5054279;28;20021;-81
2022/04/10 00:09:59;;;;;;;3.65;2.13;;;12.40;51.90;;;;;;5057188;28;20037;-83
2022/04/10 00:12:25;;;;;;;3.72;2.22;;;12.50;51.60;;;;;;5056397;28;20063;-82
2022/04/10 00:14:51;;;;;;;4.05;2.30;;;12.60;50.90;;;;;;5057563;28;20112;-86
2022/04/10 00:17:16;;;;;;;3.55;2.15;;;12.70;50.90;;;;;;5057414;28;20383;-80
2022/04/10 00:19:43;;;;;;;4.55;2.60;;;12.70;51.10;;;;;;5056136;28;20048;-84
2022/04/10 00:22:10;;;;;;;3.55;2.10;;;12.50;51.00;;;;;;5057856;28;20107;-86
2022/04/10 00:24:36;;;;;;;4.00;2.08;;;12.20;52.70;;;;;;5057363;28;20021;-87
2022/04/10 00:27:02;;;;;;;3.65;2.30;;;12.00;52.40;;;;;;5056081;28;20040;-83
2022/04/10 00:29:27;;;;;;;4.38;2.40;;;12.00;52.30;;;;;;5057363;28;20071;-85
2022/04/10 00:31:53;;;;;;;3.90;2.30;;;11.80;52.50;;;;;;5074594;28;20109;-83
2022/04/10 00:34:19;;;;;;;4.03;2.65;;;11.70;52.90;;;;;;5059021;28;20024;-82
2022/04/10 00:36:44;;;;;;;4.40;2.25;;;11.90;53.20;;;;;;5077075;28;20036;-85
2022/04/10 00:39:10;;;;;;;3.97;2.20;;;11.90;52.60;;;;;;5077197;28;20024;-86
2022/04/10 00:41:36;;;;;;;4.15;2.38;;;11.80;53.30;;;;;;5077105;28;20025;-87
2022/04/10 00:44:06;;;;;;;4.60;2.50;;;12.10;52.50;;;;;;5076313;28;20120;-83
2022/04/10 00:46:33;;;;;;;6.68;2.50;;;12.10;52.60;;;;;;5077047;28;20028;-85
2022/04/10 00:48:59;;;;;;;3.80;2.17;;;11.90;52.50;;;;;;5058876;28;20023;-84
2022/04/10 00:51:43;;;;;;;4.35;2.50;;;11.80;53.50;;;;;;5058914;28;20036;-87
2022/04/10 00:54:14;;;;;;;3.38;2.15;;;11.70;53.10;;;;;;5059129;28;20024;-83
2022/04/10 00:56:41;;;;;;;4.03;2.25;;;11.30;54.00;;;;;;5059534;28;20032;-86
2022/04/10 00:59:07;;;;;;;4.10;2.67;;;11.60;53.30;;;;;;5076171;28;20440;-86
2022/04/10 01:01:37;;;;;;;5.32;3.10;;;11.60;53.40;;;;;;5076583;28;20037;-85
2022/04/10 01:04:04;;;;;;;4.22;2.60;;;11.50;53.70;;;;;;5058541;28;20032;-83
2022/04/10 01:06:32;;;;;;;4.05;2.60;;;11.50;54.20;;;;;;5058585;28;20444;-87
2022/04/10 01:08:58;;;;;;;4.32;2.50;;;11.70;54.00;;;;;;5058599;28;20111;-80
2022/04/10 01:11:24;;;;;;;3.42;2.22;;;11.70;53.00;;;;;;5076735;28;20115;-87
2022/04/10 01:13:53;;;;;;;4.47;2.65;;;11.80;53.10;;;;;;5076916;28;20103;-80
2022/04/10 01:16:21;;;;;;;5.95;3.33;;;11.80;52.90;;;;;;5076686;28;20479;-87
2022/04/10 01:18:47;;;;;;;4.28;2.45;;;11.70;54.10;;;;;;5075777;28;20440;-83
2022/04/10 01:21:21;;;;;;;4.15;2.63;;;11.60;53.50;;;;;;5076353;28;20027;-87
2022/04/10 01:23:47;;;;;;;4.30;2.70;;;11.40;54.30;;;;;;5076247;28;20529;-87
2022/04/10 01:26:13;;;;;;;4.90;2.88;;;11.30;54.60;;;;;;5058663;28;20078;-86
2022/04/10 01:28:58;;;;;;;4.53;2.65;;;11.50;54.40;;;;;;5076276;28;20033;-85
2022/04/10 01:31:24;;;;;;;4.45;2.53;;;11.90;53.30;;;;;;5054831;28;20056;-88
2022/04/10 01:33:50;;;;;;;4.60;2.83;;;11.60;54.30;;;;;;5055074;28;20476;-90
2022/04/10 01:36:17;;;;;;;4.80;2.78;;;11.40;54.40;;;;;;5054588;28;20021;-86
2022/04/10 01:38:44;;;;;;;4.28;2.70;;;11.40;54.80;;;;;;5054892;28;20545;-86
2022/04/10 01:41:14;;;;;;;4.70;2.90;;;11.70;54.10;;;;;;5056026;28;20035;-88
2022/04/10 01:43:47;;;;;;;4.57;2.70;;;12.00;53.00;;;;;;5054787;28;20027;-88
2022/04/10 01:46:14;;;;;;;5.97;2.83;;;12.20;52.50;;;;;;5054653;28;20075;-80
2022/04/10 01:48:40;;;;;;;5.03;2.83;;;11.90;53.20;;;;;;5054815;28;20021;-87
2022/04/10 01:51:06;;;;;;;5.15;3.20;;;12.00;53.50;;;;;;5055982;28;20036;-80
2022/04/10 01:53:32;;;;;;;5.10;3.13;;;11.90;52.80;;;;;;5054628;28;20132;-88
2022/04/10 01:55:58;;;;;;;5.43;3.00;;;11.80;53.60;;;;;;5055020;28;20029;-88
2022/04/10 01:58:23;;;;;;;4.68;3.03;;;11.80;53.70;;;;;;5054767;28;20025;-85
2022/04/10 02:00:49;;;;;;;5.53;3.55;;;11.90;53.40;;;;;;5054601;28;20134;-88
2022/04/10 02:03:15;;;;;;;4.93;3.08;;;11.90;53.30;;;;;;5055889;28;20051;-81
2022/04/10 02:05:41;;;;;;;5.75;3.05;;;12.00;53.20;;;;;;5054603;28;20434;-87
2022/04/10 02:08:06;;;;;;;5.10;3.00;;;12.20;52.50;;;;;;5056079;28;20070;-87
2022/04/10 02:10:33;;;;;;;5.07;3.20;;;12.30;52.00;;;;;;5055240;28;20383;-85
2022/04/10 02:12:59;;;;;;;5.00;3.08;;;12.50;51.70;;;;;;5053853;28;20025;-88
2022/04/10 02:15:24;;;;;;;5.50;3.30;;;12.30;51.60;;;;;;5054334;28;20036;-87
2022/04/10 02:17:50;;;;;;;4.57;3.10;;;12.10;52.20;;;;;;5055550;28;20115;-83
2022/04/10 02:20:16;;;;;;;5.18;3.08;;;11.90;52.40;;;;;;5053599;28;20549;-81
2022/04/10 02:22:42;;;;;;;4.53;2.70;;;11.70;52.70;;;;;;5054883;28;20049;-88
2022/04/10 02:25:08;;;;;;;5.53;3.28;;;11.50;52.80;;;;;;5053559;28;20083;-82
2022/04/10 02:27:33;;;;;;;5.78;2.92;;;11.70;53.20;;;;;;5053827;28;20384;-81
2022/04/10 02:29:59;;;;;;;3.95;2.60;;;11.90;52.40;;;;;;5055249;28;20043;-86
2022/04/10 02:32:25;;;;;;;4.65;2.83;;;12.00;52.10;;;;;;5075157;28;20028;-87
2022/04/10 02:34:50;;;;;;;4.82;3.25;;;11.90;52.20;;;;;;5074622;28;20031;-87
2022/04/10 02:37:16;;;;;;;4.72;2.97;;;11.90;52.10;;;;;;5056774;28;20544;-89
2022/04/10 02:39:42;;;;;;;5.47;3.00;;;11.70;53.10;;;;;;5056982;28;20556;-80
2022/04/10 02:42:08;;;;;;;5.22;3.17;;;11.80;52.30;;;;;;5074558;28;20017;-87
2022/04/10 02:44:36;;;;;;;4.55;3.17;;;11.80;52.50;;;;;;5074520;28;20497;-87
2022/04/10 02:47:01;;;;;;;5.03;3.10;;;11.80;52.60;;;;;;5074257;28;20036;-87
2022/04/10 02:49:27;;;;;;;5.55;3.10;;;12.00;52.30;;;;;;5074286;28;20033;-82
2022/04/10 02:51:53;;;;;;;4.55;2.90;;;12.20;51.60;;;;;;5056319;28;20032;-81
2022/04/10 02:54:18;;;;;;;5.03;3.30;;;12.30;51.60;;;;;;5056731;28;20051;-90
2022/04/10 02:56:44;;;;;;;5.68;3.40;;;12.10;52.20;;;;;;5074362;28;20510;-87
2022/04/10 02:59:10;;;;;;;5.15;3.20;;;11.80;52.60;;;;;;5056259;28;20111;-83
2022/04/10 03:01:35;;;;;;;5.60;3.35;;;11.60;52.90;;;;;;5056208;28;20044;-81
2022/04/10 03:04:01;;;;;;;5.47;3.35;;;11.50;53.60;;;;;;5074068;28;20021;-87
2022/04/10 03:06:26;;;;;;;5.05;3.38;;;11.50;53.90;;;;;;5056370;28;20463;-84
2022/04/10 03:08:53;;;;;;;5.80;3.72;;;11.40;53.90;;;;;;5073642;28;20028;-81
2022/04/10 03:11:19;;;;;;;5.60;3.25;;;11.30;54.20;;;;;;5055881;28;20028;-83
2022/04/10 03:13:45;;;;;;;5.10;3.30;;;11.20;54.30;;;;;;5073538;28;20033;-80
2022/04/10 03:16:11;;;;;;;5.00;3.50;;;11.20;54.40;;;;;;5074099;28;20028;-79
2022/04/10 03:18:37;;;;;;;6.53;3.63;;;11.30;54.20;;;;;;5056127;28;20027;-87
2022/04/10 03:21:04;;;;;;;5.82;3.80;;;11.40;53.70;;;;;;5074142;28;20020;-87
2022/04/10 03:23:30;;;;;;;5.45;3.60;;;11.30;54.30;;;;;;5056163;28;20052;-85
2022/04/10 03:25:55;;;;;;;7.15;4.03;;;11.10;54.40;;;;;;5073840;28;20063;-88
2022/04/10 03:28:21;;;;;;;5.68;3.50;;;11.20;54.50;;;;;;5056224;28;20017;-87
2022/04/10 03:30:47;;;;;;;5.20;3.78;;;11.40;54.50;;;;;;5073540;28;20094;-84
2022/04/10 03:33:13;;;;;;;7.15;3.78;;;11.20;54.20;;;;;;5073992;28;20051;-81
2022/04/10 03:35:38;;;;;;;6.68;3.90;;;11.10;54.60;;;;;;5073347;28;20034;-89
2022/04/10 03:38:05;;;;;;;5.97;3.63;;;10.90;54.70;;;;;;5056046;28;20107;-89
2022/04/10 03:40:30;;;;;;;7.80;4.00;;;11.10;55.10;;;;;;5073738;28;20471;-83
2022/04/10 03:42:56;;;;;;;5.68;3.78;;;11.20;54.70;;;;;;5073707;28;20024;-88
2022/04/10 03:45:22;;;;;;;6.20;4.00;;;11.10;54.70;;;;;;5074324;28;20360;-89
2022/04/10 03:47:48;;;;;;;6.05;3.95;;;11.30;54.80;;;;;;5055981;28;20021;-79
2022/04/10 03:50:14;;;;;;;5.90;3.97;;;11.40;54.10;;;;;;5073480;28;20059;-87
2022/04/10 03:52:39;;;;;;;6.93;4.05;;;11.30;54.50;;;;;;5073535;28;20036;-86
2022/04/10 03:55:05;;;;;;;7.35;4.00;;;11.50;54.50;;;;;;5073407;28;20040;-86
2022/04/10 03:57:31;;;;;;;6.30;4.18;;;11.30;54.60;;;;;;5073619;28;20169;-88
2022/04/10 03:59:57;;;;;;;9.32;4.93;;;11.30;54.40;;;;;;5074022;28;20424;-87
2022/04/10 04:02:23;;;;;;;6.82;4.88;;;11.20;54.70;;;;;;5073725;28;20082;-81
2022/04/10 04:04:50;;;;;;;6.60;4.50;;;11.20;54.80;;;;;;5056220;28;20029;-89
2022/04/10 04:07:16;;;;;;;6.53;4.45;;;11.30;55.00;;;;;;5055888;28;20027;-84
2022/04/10 04:09:42;;;;;;;8.18;4.97;;;11.20;54.60;;;;;;5073411;28;20028;-86
2022/04/10 04:12:08;;;;;;;7.63;4.80;;;10.80;56.00;;;;;;5056023;28;20433;-86
2022/04/10 04:14:37;;;;;;;8.10;4.50;;;11.20;55.50;;;;;;5073711;28;20071;-88
2022/04/10 04:17:03;;;;;;;6.10;4.50;;;11.20;55.10;;;;;;5055551;28;20509;-84
2022/04/10 04:19:29;;;;;;;8.45;5.03;;;11.10;55.30;;;;;;5055639;28;20124;-88
2022/04/10 04:21:58;;;;;;;6.65;4.68;;;11.00;55.60;;;;;;5055732;28;20024;-88
2022/04/10 04:24:24;;;;;;;6.82;5.00;;;11.10;55.80;;;;;;5074028;28;20021;-85
2022/04/10 04:26:50;;;;;;;7.90;4.85;;;11.30;55.20;;;;;;5073635;28;20032;-89
2022/04/10 04:29:15;;;;;;;7.82;5.47;;;11.20;55.10;;;;;;5072997;28;20032;-89
2022/04/10 04:31:41;;;;;;;8.15;5.35;;;11.00;55.30;;;;;;5073587;28;20144;-88
2022/04/10 04:34:09;;;;;;;8.23;5.65;;;11.10;55.60;;;;;;5055291;28;20378;-81
2022/04/10 04:36:35;;;;;;;6.95;5.30;;;11.40;55.20;;;;;;5055385;28;20364;-80
2022/04/10 04:39:00;;;;;;;6.93;5.05;;;11.60;54.50;;;;;;5073427;28;20023;-84
2022/04/10 04:41:26;;;;;;;7.03;4.90;;;11.60;54.80;;;;;;5072642;28;20479;-85
2022/04/10 04:43:52;;;;;;;7.72;5.22;;;11.40;54.90;;;;;;5055438;28;20054;-89
2022/04/10 04:46:17;;;;;;;7.13;5.00;;;11.40;55.10;;;;;;5056136;28;20039;-88
2022/04/10 04:48:43;;;;;;;7.65;5.03;;;11.50;54.90;;;;;;5056047;28;20081;-87
2022/04/10 04:51:12;;;;;;;9.07;5.82;;;11.10;55.70;;;;;;5073585;28;20032;-84
2022/04/10 04:53:38;;;;;;;28.40;13.07;;;11.30;55.20;;;;;;5056682;28;20027;-87
2022/04/10 04:56:04;;;;;;;8.50;5.20;;;11.30;55.20;;;;;;5059821;28;20021;-87
2022/04/10 04:58:30;;;;;;;51.38;18.30;;;11.30;55.50;;;;;;5076612;28;20387;-87
2022/04/10 05:00:56;;;;;;;11.38;6.70;;;11.40;55.40;;;;;;5076509;28;20534;-87
2022/04/10 05:03:21;;;;;;;8.77;5.55;;;11.10;56.00;;;;;;5059004;28;20024;-83
2022/04/10 05:05:47;;;;;;;9.20;5.60;;;11.10;56.00;;;;;;5059244;28;20043;-85
2022/04/10 05:08:13;;;;;;;12.68;7.20;;;11.10;55.90;;;;;;5058800;28;20064;-83
2022/04/10 05:10:39;;;;;;;10.05;5.93;;;11.10;55.80;;;;;;5058791;28;20105;-82
2022/04/10 05:13:08;;;;;;;9.15;5.75;;;11.20;55.70;;;;;;5077112;28;20143;-88
2022/04/10 05:15:34;;;;;;;7.78;5.25;;;11.50;55.60;;;;;;5076860;28;20024;-86
2022/04/10 05:18:00;;;;;;;7.20;5.35;;;11.60;55.40;;;;;;5058886;28;20024;-85
2022/04/10 05:20:25;;;;;;;7.88;5.57;;;11.30;56.00;;;;;;5059476;28;20032;-87
2022/04/10 05:22:51;;;;;;;9.68;6.40;;;11.30;56.20;;;;;;5084240;28;20012;-85
2022/04/10 05:25:18;;;;;;;8.57;5.68;;;11.60;55.80;;;;;;5076001;28;20120;-89
2022/04/10 05:27:43;;;;;;;9.02;6.07;;;11.50;55.30;;;;;;5059689;28;20527;-87
2022/04/10 05:30:10;;;;;;;7.65;5.53;;;11.60;55.30;;;;;;5054252;28;20033;-79
2022/04/10 05:32:41;;;;;;;8.63;5.97;;;11.50;55.40;;;;;;4702301;28;10000397;-80
2022/04/10 05:35:08;;;;;;;8.52;5.72;;;11.30;55.70;;;;;;5076357;28;20057;-81
2022/04/10 05:37:34;;;;;;;7.32;5.43;;;11.60;55.80;;;;;;5090957;28;20032;-85
2022/04/10 05:39:59;;;;;;;8.55;5.70;;;11.80;55.40;;;;;;5065274;28;20024;-89
2022/04/10 05:42:25;;;;;;;9.50;5.97;;;12.20;54.90;;;;;;5070664;28;20028;-81
2022/04/10 05:44:51;;;;;;;8.10;5.95;;;12.20;54.10;;;;;;5059337;28;20024;-79
2022/04/10 05:47:17;;;;;;;8.27;5.70;;;12.60;54.10;;;;;;5077975;28;20070;-87
2022/04/10 05:49:42;;;;;;;8.93;5.50;;;12.80;54.00;;;;;;5056776;28;20399;-82
2022/04/10 05:52:08;;;;;;;8.18;5.75;;;13.20;52.80;;;;;;5053808;28;20463;-85
2022/04/10 05:54:34;;;;;;;7.80;5.22;;;13.00;53.50;;;;;;5055255;28;20027;-82
2022/04/10 05:56:59;;;;;;;8.20;5.75;;;13.40;52.90;;;;;;5055032;28;20040;-88
2022/04/10 05:59:25;;;;;;;7.25;5.35;;;13.40;52.20;;;;;;5056983;28;20075;-81
2022/04/10 06:01:52;;;;;;;7.60;5.45;;;13.20;52.90;;;;;;5076796;28;20454;-82
2022/04/10 06:04:18;;;;;;;7.65;5.65;;;12.90;53.20;;;;;;5060701;28;20139;-86
2022/04/10 06:06:46;;;;;;;7.53;5.13;;;12.90;53.70;;;;;;5054707;28;20171;-85
2022/04/10 06:09:12;;;;;;;8.35;5.30;;;13.00;53.10;;;;;;5069213;28;20072;-79
2022/04/10 06:11:38;;;;;;;8.50;5.57;;;12.80;53.10;;;;;;5060201;28;20064;-78
2022/04/10 06:14:03;;;;;;;9.75;7.43;;;12.30;53.70;;;;;;5065091;28;20032;-80
2022/04/10 06:16:30;;;;;;;8.25;5.97;;;12.60;54.40;;;;;;5054309;28;20043;-79
2022/04/10 06:18:56;;;;;;;8.05;6.15;;;12.60;53.80;;;;;;5053190;28;20506;-81
2022/04/10 06:21:22;;;;;;;7.63;5.32;;;12.70;53.50;;;;;;5053195;28;20734;-79
2022/04/10 06:23:48;;;;;;;8.13;5.40;;;12.80;53.40;;;;;;5068362;28;20111;-80
2022/04/10 06:26:13;;;;;;;7.22;5.40;;;13.00;52.90;;;;;;5053264;28;20055;-78
2022/04/10 06:28:39;;;;;;;7.80;5.68;;;12.90;53.10;;;;;;5040784;28;20036;-78
2022/04/10 06:31:05;;;;;;;6.93;4.90;;;13.00;53.90;;;;;;5051651;28;20130;-81
2022/04/10 06:33:30;;;;;;;7.07;5.13;;;13.30;52.50;;;;;;5065770;28;20704;-81
2022/04/10 06:35:56;;;;;;;7.38;5.28;;;13.40;51.90;;;;;;5071473;28;20024;-87
2022/04/10 06:38:21;;;;;;;8.23;5.22;;;13.60;52.10;;;;;;5071688;28;20032;-83
2022/04/10 06:40:51;;;;;;;7.72;5.80;;;13.50;52.10;;;;;;5071679;28;20042;-78
2022/04/10 06:43:17;;;;;;;6.88;5.32;;;13.90;51.70;;;;;;5054641;28;20374;-81
2022/04/10 06:45:42;;;;;;;6.88;5.22;;;14.10;51.50;;;;;;5051799;28;20066;-80
2022/04/10 06:48:08;;;;;;;7.57;5.55;;;13.90;51.60;;;;;;5053238;28;20436;-79
2022/04/10 06:50:34;;;;;;;5.95;4.70;;;13.90;51.50;;;;;;5053521;28;20578;-79
2022/04/10 06:52:59;;;;;;;6.85;5.20;;;14.40;51.40;;;;;;5053443;28;20012;-80
2022/04/10 06:55:25;;;;;;;6.05;4.78;;;14.60;51.00;;;;;;5067283;28;20732;-84
2022/04/10 06:57:51;;;;;;;6.45;4.80;;;14.80;49.30;;;;;;5089403;28;20020;-82
2022/04/10 07:00:17;;;;;;;7.07;5.05;;;14.80;49.40;;;;;;5085132;28;20522;-80
2022/04/10 07:02:42;;;;;;;6.75;5.00;;;14.90;50.30;;;;;;5053947;28;20064;-87
2022/04/10 07:05:08;;;;;;;6.78;4.78;;;15.50;49.40;;;;;;5048411;28;20037;-83
2022/04/10 07:07:34;;;;;;;6.15;4.70;;;15.60;48.70;;;;;;5033229;28;20506;-79
2022/04/10 07:10:00;;;;;;;6.00;4.35;;;16.10;48.00;;;;;;5033747;28;20029;-84
2022/04/10 07:12:26;;;;;;;6.45;4.70;;;16.80;46.60;;;;;;5047218;28;20098;-82
2022/04/10 07:14:52;;;;;;;9.55;4.45;;;16.60;45.30;;;;;;5064831;28;20123;-84
2022/04/10 07:17:17;;;;;;;6.10;4.50;;;16.30;46.00;;;;;;5072321;28;20092;-87
2022/04/10 07:19:45;;;;;;;6.57;4.63;;;17.10;45.80;;;;;;5053834;28;20032;-81
2022/04/10 07:24:55;;;;;;;7.22;4.72;;;17.80;45.20;;;;;;5071567;28;20031;-84
2022/04/10 07:27:21;;;;;;;7.40;4.95;;;17.80;44.60;;;;;;5051930;28;20020;-85
2022/04/10 07:29:47;;;;;;;6.72;4.53;;;17.50;45.60;;;;;;5071878;28;20038;-83
2022/04/10 07:32:13;;;;;;;7.70;4.63;;;17.50;45.20;;;;;;5051365;28;20073;-79
2022/04/10 07:34:38;;;;;;;6.50;4.85;;;17.90;44.70;;;;;;5052646;28;20119;-78
2022/04/10 07:37:04;;;;;;;7.57;4.53;;;18.20;44.60;;;;;;5070327;28;20032;-77
2022/04/10 07:39:30;;;;;;;6.40;4.50;;;18.80;43.50;;;;;;5070996;28;20025;-80
2022/04/10 07:41:55;;;;;;;6.55;4.70;;;18.40;43.80;;;;;;5053207;28;20025;-86
2022/04/10 07:44:21;;;;;;;7.20;4.90;;;17.90;43.80;;;;;;5071793;28;20024;-85
2022/04/10 07:49:31;;;;;;;7.40;4.90;;;17.50;45.80;;;;;;5073903;28;20094;-87
2022/04/10 07:51:56;;;;;;;7.18;4.72;;;18.50;44.00;;;;;;5073252;28;20072;-84
2022/04/10 07:54:22;;;;;;;5.95;4.47;;;19.00;43.90;;;;;;5055500;28;20033;-86
2022/04/10 07:56:48;;;;;;;6.72;4.65;;;19.20;43.00;;;;;;5072641;28;20031;-83
2022/04/10 07:59:13;;;;;;;7.45;4.68;;;18.50;44.10;;;;;;5072676;28;20025;-83
2022/04/10 08:01:39;;;;;;;6.68;4.05;;;18.70;45.20;;;;;;5055197;28;20028;-81
2022/04/10 08:04:05;;;;;;;5.40;3.97;;;19.80;42.60;;;;;;5072867;28;20213;-83
2022/04/10 08:06:30;;;;;;;5.30;4.00;;;19.20;42.40;;;;;;5055501;28;20031;-83
2022/04/10 08:08:59;;;;;;;5.13;3.67;;;18.70;42.20;;;;;;5073137;28;20020;-84
2022/04/10 08:11:24;;;;;;;5.32;3.80;;;18.50;43.20;;;;;;5073264;28;20029;-83
2022/04/10 08:13:50;;;;;;;5.38;3.90;;;18.80;43.00;;;;;;5055158;28;20032;-82
2022/04/10 08:16:16;;;;;;;6.05;3.97;;;20.60;43.00;;;;;;5055201;28;20057;-81
2022/04/10 08:18:42;;;;;;;5.07;3.72;;;20.90;40.50;;;;;;5073387;28;20566;-86
2022/04/10 08:21:08;;;;;;;5.00;3.63;;;19.80;40.60;;;;;;5054714;28;20103;-83
2022/04/10 08:23:34;;;;;;;5.05;4.10;;;19.60;41.30;;;;;;5055408;28;20028;-84
2022/04/10 08:26:00;;;;;;;6.32;3.83;;;19.30;41.90;;;;;;5073257;28;20035;-80
2022/04/10 08:28:25;;;;;;;4.40;3.30;;;19.70;41.60;;;;;;5055757;28;20103;-85
2022/04/10 08:30:51;;;;;;;5.18;3.38;;;21.20;40.30;;;;;;5076967;28;20475;-82
2022/04/10 08:33:17;;;;;;;5.35;3.75;;;20.90;39.40;;;;;;5076772;28;20028;-81
2022/04/10 08:35:43;;;;;;;5.78;3.25;;;21.10;40.00;;;;;;5076787;28;20383;-80
2022/04/10 08:38:08;;;;;;;4.80;3.25;;;21.30;39.40;;;;;;5076542;28;20052;-83
2022/04/10 08:40:34;;;;;;;4.72;3.35;;;20.10;40.60;;;;;;5059029;28;20047;-83
2022/04/10 08:43:02;;;;;;;5.13;3.70;;;20.30;39.60;;;;;;5076733;28;20169;-84
2022/04/10 08:45:31;;;;;;;4.47;3.13;;;20.70;39.60;;;;;;5059154;28;20479;-83
2022/04/10 08:47:57;;;;;;;4.53;3.03;;;21.40;38.60;;;;;;5059487;28;20039;-83
2022/04/10 08:50:24;;;;;;;5.45;3.58;;;20.20;39.40;;;;;;5058807;28;20072;-80
2022/04/10 08:52:56;;;;;;;6.20;3.40;;;19.80;41.60;;;;;;5075592;28;20475;-82
2022/04/10 08:55:22;;;;;;;5.85;3.40;;;20.10;42.10;;;;;;5075605;28;20027;-81
2022/04/10 08:57:47;;;;;;;4.80;3.10;;;19.70;41.40;;;;;;5075805;28;20024;-81
2022/04/10 09:00:15;;;;;;;6.82;3.67;;;20.30;40.60;;;;;;5057908;28;20491;-80
2022/04/10 09:02:52;;;;;;;4.22;3.10;;;19.70;40.90;;;;;;5075793;28;20028;-82
2022/04/10 09:05:19;;;;;;;6.07;3.83;;;20.30;40.80;;;;;;5071264;28;20039;-83
2022/04/10 09:08:08;;;;;;;5.53;3.65;;;20.90;40.10;;;;;;5075865;28;20136;-83
2022/04/10 09:10:53;;;;;;;6.70;3.35;;;20.40;40.30;;;;;;5058316;28;20036;-83
2022/04/10 09:13:49;;;;;;;6.10;3.35;;;21.10;39.30;;;;;;5075199;28;20029;-84
2022/04/10 09:16:17;;;;;;;5.03;3.38;;;21.40;40.10;;;;;;5075912;28;20025;-83
2022/04/10 09:19:01;;;;;;;5.13;3.15;;;21.50;39.90;;;;;;5075687;28;20099;-82
2022/04/10 09:21:29;;;;;;;4.45;2.90;;;21.40;39.90;;;;;;5057849;28;20036;-81
2022/04/10 09:23:59;;;;;;;4.03;2.90;;;21.20;39.50;;;;;;5057581;28;20043;-81
2022/04/10 09:26:26;;;;;;;4.80;3.20;;;20.10;39.60;;;;;;5074154;28;20489;-82
2022/04/10 09:28:53;;;;;;;5.80;3.22;;;21.10;40.10;;;;;;5040501;28;20634;-78
2022/04/10 09:31:35;;;;;;;4.65;2.95;;;22.00;38.40;;;;;;5055988;28;20052;-79
2022/04/10 09:34:05;;;;;;;4.60;3.20;;;22.30;38.20;;;;;;5074668;28;20025;-79
2022/04/10 09:36:45;;;;;;;11.55;3.30;;;21.40;38.90;;;;;;5074284;28;20594;-87
2022/04/10 09:39:12;;;;;;;4.57;3.25;;;20.10;38.60;;;;;;5073119;28;20052;-83
2022/04/10 09:41:40;;;;;;;5.00;3.20;;;17.90;41.30;;;;;;5057103;28;20032;-81
2022/04/10 09:44:21;;;;;;;5.88;3.20;;;17.80;41.50;;;;;;5074637;28;20048;-80
2022/04/10 09:46:58;;;;;;;4.97;3.08;;;18.10;42.00;;;;;;5056055;28;20035;-81
2022/04/10 09:49:29;;;;;;;5.90;3.05;;;18.80;41.20;;;;;;5072448;28;20044;-81
2022/04/10 09:52:11;;;;;;;;;;;18.70;41.40;;;;;;5055424;28;20051;-81
2022/04/10 09:54:44;;;;;;;4.47;3.20;;;18.40;42.40;;;;;;5055764;28;19904;-82
2022/04/10 09:57:11;;;;;;;5.70;3.50;;;17.80;42.80;;;;;;5072587;28;20027;-81
2022/04/10 09:59:44;;;;;;;5.07;3.10;;;19.00;43.50;;;;;;5056336;28;20029;-80
2022/04/10 10:02:18;;;;;;;4.63;2.95;;;20.20;40.30;;;;;;5055847;28;20403;-83
2022/04/10 10:04:46;;;;;;;8.35;3.95;;;19.00;39.50;;;;;;5068945;28;20028;-81
2022/04/10 10:07:14;;;;;;;3.80;2.80;;;18.30;42.40;;;;;;5041799;28;20035;-81
2022/04/10 10:09:40;;;;;;;7.25;3.10;;;19.20;41.10;;;;;;5073985;28;20024;-80
2022/04/10 10:12:07;;;;;;;6.68;2.80;;;19.40;40.50;;;;;;5073339;28;20077;-80
2022/04/10 10:14:34;;;;;;;6.00;3.33;;;19.40;41.40;;;;;;5050567;28;20032;-83
2022/04/10 10:17:02;;;;;;;9.25;2.90;;;19.40;39.20;;;;;;5051986;28;20031;-82
2022/04/10 10:19:36;;;;;;;5.63;3.20;;;18.80;40.70;;;;;;5061814;28;20467;-83
2022/04/10 10:22:04;;;;;;;3.78;2.70;;;18.80;41.30;;;;;;5054479;28;20016;-80
2022/04/10 10:24:37;;;;;;;5.40;3.05;;;19.90;40.70;;;;;;5044541;28;20036;-82
2022/04/10 10:27:44;;;;;;;5.20;3.10;;;20.70;39.20;;;;;;5065616;28;20115;-80
2022/04/10 10:30:38;;;;;;;4.00;2.58;;;20.80;38.50;;;;;;5000049;28;20421;-81
2022/04/10 10:33:20;;;;;;;4.40;2.72;;;22.20;39.40;;;;;;4979587;28;20046;-79
2022/04/10 10:35:55;;;;;;;4.20;2.65;;;21.70;37.90;;;;;;4993176;28;20432;-80
2022/04/10 10:38:26;;;;;;;5.28;2.50;;;21.10;37.20;;;;;;4984947;28;20031;-80
2022/04/10 10:41:09;;;;;;;;;;;19.90;39.30;;;;;;4981748;28;20035;-80
2022/04/10 10:43:35;;;;;;;5.00;2.63;;;20.60;38.10;;;;;;4443297;28;9999692;-79
2022/04/10 10:46:28;;;;;;;6.47;3.00;;;21.50;38.90;;;;;;4988284;28;20393;-80
2022/04/10 10:49:16;;;;;;;6.30;2.80;;;21.90;37.70;;;;;;4972495;28;20113;-82
2022/04/10 10:51:50;;;;;;;5.20;3.00;;;19.70;38.90;;;;;;4985821;28;20129;-80
2022/04/10 10:54:34;;;;;;;5.35;3.10;;;18.50;40.10;;;;;;4979221;28;20605;-81
2022/04/10 10:57:22;;;;;;;4.30;2.63;;;18.00;41.80;;;;;;4974212;28;20031;-80
2022/04/10 10:59:51;;;;;;;6.53;2.60;;;17.70;40.60;;;;;;4978077;28;20378;-82
2022/04/10 11:02:19;;;;;;;5.63;3.37;;;17.80;41.00;;;;;;4977710;28;20423;-81
2022/04/10 11:04:47;;;;;;;5.70;2.60;;;17.50;41.50;;;;;;4971740;28;20381;-80
2022/04/10 11:07:19;;;;;;;4.95;2.33;;;18.00;43.10;;;;;;5043202;28;20086;-85
2022/04/10 11:10:01;;;;;;;5.25;2.75;;;16.70;41.40;;;;;;5053476;28;20028;-82
2022/04/10 11:12:49;;;;;;;6.60;3.08;;;16.30;43.20;;;;;;5052312;28;20040;-80
2022/04/10 11:15:23;;;;;;;5.55;2.78;;;16.00;44.00;;;;;;5052975;28;20024;-83
2022/04/10 11:17:53;;;;;;;4.55;2.67;;;16.00;44.90;;;;;;5051706;28;20123;-84
2022/04/10 11:20:23;;;;;;;4.40;2.77;;;15.70;43.30;;;;;;5059944;28;20028;-83
2022/04/10 11:22:52;;;;;;;;;;;15.50;44.90;;;;;;5065908;28;20020;-83
2022/04/10 11:25:19;;;;;;;4.10;2.50;;;15.90;43.10;;;;;;5052020;28;20406;-82
2022/04/10 11:27:51;;;;;;;4.85;2.40;;;16.40;43.90;;;;;;5055166;28;20032;-82
2022/04/10 11:30:22;;;;;;;4.53;2.10;;;16.20;43.10;;;;;;5072890;28;20032;-80
2022/04/10 11:32:52;;;;;;;7.32;3.60;;;16.20;43.50;;;;;;5073490;28;20082;-88
2022/04/10 11:35:34;;;;;;;5.30;2.53;;;16.70;42.70;;;;;;5055173;28;20029;-85
2022/04/10 11:38:17;;;;;;;4.78;2.30;;;16.70;42.40;;;;;;5072951;28;20032;-85
2022/04/10 11:40:50;;;;;;;4.32;2.10;;;17.40;43.60;;;;;;4721962;28;10000899;-83
2022/04/10 11:43:17;;;;;;;4.50;2.40;;;17.10;41.50;;;;;;5053586;28;20027;-84
2022/04/10 11:45:44;;;;;;;4.13;2.10;;;16.60;42.90;;;;;;5072633;28;20025;-82
2022/04/10 11:48:11;;;;;;;3.95;2.20;;;16.70;41.80;;;;;;5072989;28;20055;-83
2022/04/10 11:50:38;;;;;;;4.38;1.98;;;16.40;43.20;;;;;;5055657;28;20517;-84
2022/04/10 11:53:04;;;;;;;4.25;2.30;;;16.10;42.60;;;;;;5054597;28;20096;-88
2022/04/10 11:55:36;;;;;;;4.38;2.67;;;16.20;42.20;;;;;;5053701;28;20039;-84
2022/04/10 11:58:25;;;;;;;4.50;2.30;;;16.10;42.80;;;;;;5072373;28;20559;-84
2022/04/10 12:00:53;;;;;;;4.85;2.20;;;16.50;43.00;;;;;;5053276;28;20025;-82
2022/04/10 12:03:21;;;;;;;4.28;2.22;;;16.60;42.30;;;;;;5055250;28;20024;-80
2022/04/10 12:05:47;;;;;;;4.07;1.80;;;16.50;41.60;;;;;;5075233;28;20150;-83
2022/04/10 12:08:13;;;;;;;5.63;1.90;;;16.30;41.10;;;;;;5075593;28;20123;-80
2022/04/10 12:10:55;;;;;;;3.83;1.90;;;16.00;41.60;;;;;;5074952;28;20085;-84
2022/04/10 12:13:21;;;;;;;4.50;1.80;;;16.30;41.80;;;;;;5055337;28;20038;-81
2022/04/10 12:15:58;;;;;;;3.80;2.05;;;16.10;41.40;;;;;;5036508;28;20029;-82
2022/04/10 12:18:27;;;;;;;4.05;1.80;;;16.00;39.90;;;;;;5069275;28;20455;-83
2022/04/10 12:21:01;;;;;;;3.83;1.73;;;15.80;40.20;;;;;;5057461;28;20032;-82
2022/04/10 12:23:27;;;;;;;4.53;1.83;;;15.50;40.70;;;;;;5056815;28;20023;-79
2022/04/10 12:25:58;;;;;;;2.85;1.70;;;15.80;42.10;;;;;;5057131;28;20647;-82
2022/04/10 12:28:24;;;;;;;;;;;16.00;40.20;;;;;;5056452;28;20478;-80
2022/04/10 12:30:50;;;;;;;3.10;1.77;;;16.60;39.50;;;;;;5074709;28;19916;-83
2022/04/10 12:33:17;;;;;;;5.38;1.80;;;16.50;38.70;;;;;;5058544;28;20028;-83
2022/04/10 12:35:45;;;;;;;4.28;1.80;;;16.00;40.70;;;;;;5058307;28;20025;-84
2022/04/10 12:38:16;;;;;;;4.03;2.05;;;16.50;41.90;;;;;;5058544;28;20017;-86
2022/04/10 12:40:42;;;;;;;3.50;1.70;;;16.80;41.70;;;;;;5058000;28;20086;-86
2022/04/10 12:43:09;;;;;;;4.00;1.88;;;16.60;40.50;;;;;;5057864;28;20457;-82
2022/04/10 12:45:39;;;;;;;3.10;1.77;;;16.50;40.80;;;;;;5057689;28;20024;-85
2022/04/10 12:48:22;;;;;;;5.15;1.90;;;17.10;41.40;;;;;;5058813;28;20025;-85
2022/04/10 12:51:11;;;;;;;5.50;2.30;;;17.10;40.90;;;;;;5070726;28;20028;-83
2022/04/10 12:53:38;;;;;;;5.60;2.63;;;17.60;41.70;;;;;;5057131;28;20032;-84
2022/04/10 12:56:17;;;;;;;4.63;2.20;;;17.50;40.30;;;;;;5075801;28;20108;-83
2022/04/10 12:58:45;;;;;;;3.33;2.13;;;17.10;40.60;;;;;;5057643;28;20119;-85